sensor_id;sensor_type;location;lat;lon;timestamp;pressure;altitude;pressure_sealevel;temperature;humidity
61786;BME280;47692;53.714;11.372;2023-04-15T00:00:20;100377.66;;;5.69;100.00
61786;BME280;47692;53.714;11.372;2023-04-15T00:02:45;100370.78;;;5.70;100.00
61786;BME280;47692;53.714;11.372;2023-04-15T00:05:12;100362.16;;;5.68;100.00
61786;BME280;47692;53.714;11.372;2023-04-15T00:07:37;100360.41;;;5.71;100.00
61786;BME280;47692;53.714;11.372;2023-04-15T00:10:03;100355.22;;;5.71;100.00
61786;BME280;47692;53.714;11.372;2023-04-15T00:12:29;100358.72;;;5.67;100.00
61786;BME280;47692;53.714;11.372;2023-04-15T00:14:54;100356.94;;;5.69;100.00
61786;BME280;47692;53.714;11.372;2023-04-15T00:17:21;100337.09;;;5.71;100.00
61786;BME280;47692;53.714;11.372;2023-04-15T00:19:46;100341.41;;;5.69;100.00
61786;BME280;47692;53.714;11.372;2023-04-15T00:22:12;100339.72;;;5.65;100.00
61786;BME280;47692;53.714;11.372;2023-04-15T00:24:38;100329.34;;;5.66;100.00
61786;BME280;47692;53.714;11.372;2023-04-15T00:27:03;100332.88;;;5.61;100.00
61786;BME280;47692;53.714;11.372;2023-04-15T00:29:29;100329.44;;;5.54;100.00
61786;BME280;47692;53.714;11.372;2023-04-15T00:31:57;100331.19;;;5.54;100.00
61786;BME280;47692;53.714;11.372;2023-04-15T00:34:23;100326.88;;;5.53;100.00
61786;BME280;47692;53.714;11.372;2023-04-15T00:36:49;100334.66;;;5.51;100.00
61786;BME280;47692;53.714;11.372;2023-04-15T00:39:15;100332.91;;;5.52;100.00
61786;BME280;47692;53.714;11.372;2023-04-15T00:41:42;100333.84;;;5.44;100.00
61786;BME280;47692;53.714;11.372;2023-04-15T00:44:07;100331.25;;;5.44;100.00
61786;BME280;47692;53.714;11.372;2023-04-15T00:46:35;100323.50;;;5.43;100.00
61786;BME280;47692;53.714;11.372;2023-04-15T00:49:03;100323.53;;;5.38;100.00
61786;BME280;47692;53.714;11.372;2023-04-15T00:51:28;100320.94;;;5.41;100.00
61786;BME280;47692;53.714;11.372;2023-04-15T00:53:56;100317.47;;;5.39;100.00
61786;BME280;47692;53.714;11.372;2023-04-15T00:56:22;100317.47;;;5.39;100.00
61786;BME280;47692;53.714;11.372;2023-04-15T00:58:48;100319.22;;;5.40;100.00
61786;BME280;47692;53.714;11.372;2023-04-15T01:01:15;100318.34;;;5.41;100.00
61786;BME280;47692;53.714;11.372;2023-04-15T01:03:40;100315.75;;;5.38;100.00
61786;BME280;47692;53.714;11.372;2023-04-15T01:06:06;100320.09;;;5.38;100.00
61786;BME280;47692;53.714;11.372;2023-04-15T01:08:31;100314.03;;;5.40;100.00
61786;BME280;47692;53.714;11.372;2023-04-15T01:10:57;100320.94;;;5.41;100.00
61786;BME280;47692;53.714;11.372;2023-04-15T01:13:25;100308.84;;;5.40;100.00
61786;BME280;47692;53.714;11.372;2023-04-15T01:15:51;100304.53;;;5.42;100.00
61786;BME280;47692;53.714;11.372;2023-04-15T01:18:17;100305.41;;;5.40;100.00
61786;BME280;47692;53.714;11.372;2023-04-15T01:20:43;100297.66;;;5.37;100.00
61786;BME280;47692;53.714;11.372;2023-04-15T01:23:08;100301.94;;;5.39;100.00
61786;BME280;47692;53.714;11.372;2023-04-15T01:25:34;100302.81;;;5.38;100.00
61786;BME280;47692;53.714;11.372;2023-04-15T01:27:59;100294.19;;;5.39;100.00
61786;BME280;47692;53.714;11.372;2023-04-15T01:30:25;100295.91;;;5.40;100.00
61786;BME280;47692;53.714;11.372;2023-04-15T01:32:51;100289.88;;;5.38;100.00
61786;BME280;47692;53.714;11.372;2023-04-15T01:35:17;100296.81;;;5.36;100.00
61786;BME280;47692;53.714;11.372;2023-04-15T01:37:43;100299.41;;;5.33;100.00
61786;BME280;47692;53.714;11.372;2023-04-15T01:40:08;100288.22;;;5.31;100.00
61786;BME280;47692;53.714;11.372;2023-04-15T01:42:35;100283.06;;;5.31;100.00
61786;BME280;47692;53.714;11.372;2023-04-15T01:45:02;100283.91;;;5.31;100.00
61786;BME280;47692;53.714;11.372;2023-04-15T01:47:27;100285.63;;;5.31;100.00
61786;BME280;47692;53.714;11.372;2023-04-15T01:49:52;100292.56;;;5.27;100.00
61786;BME280;47692;53.714;11.372;2023-04-15T01:52:17;100292.53;;;5.29;100.00
61786;BME280;47692;53.714;11.372;2023-04-15T01:54:43;100284.78;;;5.29;100.00
61786;BME280;47692;53.714;11.372;2023-04-15T01:57:09;100278.78;;;5.25;100.00
61786;BME280;47692;53.714;11.372;2023-04-15T01:59:34;100285.72;;;5.18;100.00
61786;BME280;47692;53.714;11.372;2023-04-15T02:02:00;100277.97;;;5.18;100.00
61786;BME280;47692;53.714;11.372;2023-04-15T02:04:26;100277.94;;;5.22;100.00
61786;BME280;47692;53.714;11.372;2023-04-15T02:06:52;100271.97;;;5.15;100.00
61786;BME280;47692;53.714;11.372;2023-04-15T02:09:17;100269.34;;;5.13;100.00
61786;BME280;47692;53.714;11.372;2023-04-15T02:11:42;100267.66;;;5.09;100.00
61786;BME280;47692;53.714;11.372;2023-04-15T02:14:08;100273.72;;;5.10;100.00
61786;BME280;47692;53.714;11.372;2023-04-15T02:16:33;100272.88;;;5.03;100.00
61786;BME280;47692;53.714;11.372;2023-04-15T02:18:59;100270.28;;;5.06;100.00
61786;BME280;47692;53.714;11.372;2023-04-15T02:21:27;100273.75;;;5.05;100.00
61786;BME280;47692;53.714;11.372;2023-04-15T02:23:53;100267.72;;;5.03;100.00
61786;BME280;47692;53.714;11.372;2023-04-15T02:26:19;100279.81;;;4.98;100.00
61786;BME280;47692;53.714;11.372;2023-04-15T02:28:45;100284.13;;;5.00;100.00
61786;BME280;47692;53.714;11.372;2023-04-15T02:31:11;100287.59;;;4.96;100.00
61786;BME280;47692;53.714;11.372;2023-04-15T02:33:36;100285.00;;;5.01;100.00
61786;BME280;47692;53.714;11.372;2023-04-15T02:36:02;100294.50;;;4.97;100.00
61786;BME280;47692;53.714;11.372;2023-04-15T02:38:27;100292.75;;;5.01;100.00
61786;BME280;47692;53.714;11.372;2023-04-15T02:40:52;100302.25;;;4.99;100.00
61786;BME280;47692;53.714;11.372;2023-04-15T02:43:18;100305.69;;;5.01;100.00
61786;BME280;47692;53.714;11.372;2023-04-15T02:45:44;100305.66;;;5.04;100.00
61786;BME280;47692;53.714;11.372;2023-04-15T02:48:10;100300.47;;;5.06;100.00
61786;BME280;47692;53.714;11.372;2023-04-15T02:50:35;100293.59;;;5.03;100.00
61786;BME280;47692;53.714;11.372;2023-04-15T02:53:03;100294.47;;;5.04;100.00
61786;BME280;47692;53.714;11.372;2023-04-15T02:55:30;100295.34;;;5.01;100.00
61786;BME280;47692;53.714;11.372;2023-04-15T02:57:55;100292.72;;;5.04;100.00
61786;BME280;47692;53.714;11.372;2023-04-15T03:00:22;100294.50;;;4.99;100.00
61786;BME280;47692;53.714;11.372;2023-04-15T03:02:49;100299.66;;;4.99;100.00
61786;BME280;47692;53.714;11.372;2023-04-15T03:05:16;100297.06;;;4.96;100.00
61786;BME280;47692;53.714;11.372;2023-04-15T03:07:41;100302.22;;;5.02;100.00
61786;BME280;47692;53.714;11.372;2023-04-15T03:10:07;100303.97;;;5.00;100.00
61786;BME280;47692;53.714;11.372;2023-04-15T03:12:32;100304.78;;;5.05;100.00
61786;BME280;47692;53.714;11.372;2023-04-15T03:14:58;100302.22;;;5.05;100.00
61786;BME280;47692;53.714;11.372;2023-04-15T03:17:24;100297.00;;;5.08;100.00
61786;BME280;47692;53.714;11.372;2023-04-15T03:19:49;100298.75;;;5.06;100.00
61786;BME280;47692;53.714;11.372;2023-04-15T03:22:15;100293.59;;;5.06;100.00
61786;BME280;47692;53.714;11.372;2023-04-15T03:24:40;100298.75;;;5.06;100.00
61786;BME280;47692;53.714;11.372;2023-04-15T03:27:06;100301.34;;;5.06;100.00
61786;BME280;47692;53.714;11.372;2023-04-15T03:29:32;100297.00;;;5.08;100.00
61786;BME280;47692;53.714;11.372;2023-04-15T03:31:57;100298.75;;;5.08;100.00
61786;BME280;47692;53.714;11.372;2023-04-15T03:34:22;100298.72;;;5.09;100.00
61786;BME280;47692;53.714;11.372;2023-04-15T03:36:48;100291.84;;;5.05;100.00
61786;BME280;47692;53.714;11.372;2023-04-15T03:39:13;100292.72;;;5.04;100.00
61786;BME280;47692;53.714;11.372;2023-04-15T03:41:38;100291.81;;;5.08;100.00
61786;BME280;47692;53.714;11.372;2023-04-15T03:44:04;100291.81;;;5.08;100.00
61786;BME280;47692;53.714;11.372;2023-04-15T03:46:29;100297.00;;;5.07;100.00
61786;BME280;47692;53.714;11.372;2023-04-15T03:48:55;100301.28;;;5.11;100.00
61786;BME280;47692;53.714;11.372;2023-04-15T03:51:20;100298.72;;;5.09;100.00
61786;BME280;47692;53.714;11.372;2023-04-15T03:53:46;100293.53;;;5.09;100.00
61786;BME280;47692;53.714;11.372;2023-04-15T03:56:11;100299.56;;;5.11;100.00
61786;BME280;47692;53.714;11.372;2023-04-15T03:58:36;100296.09;;;5.14;100.00
61786;BME280;47692;53.714;11.372;2023-04-15T04:01:02;100297.00;;;5.08;100.00
61786;BME280;47692;53.714;11.372;2023-04-15T04:03:27;100296.13;;;5.11;100.00
61786;BME280;47692;53.714;11.372;2023-04-15T04:05:52;100288.38;;;5.09;100.00
61786;BME280;47692;53.714;11.372;2023-04-15T04:08:18;100298.72;;;5.12;100.00
61786;BME280;47692;53.714;11.372;2023-04-15T04:10:44;100290.94;;;5.12;100.00
61786;BME280;47692;53.714;11.372;2023-04-15T04:13:09;100290.94;;;5.14;100.00
61786;BME280;47692;53.714;11.372;2023-04-15T04:15:35;100295.22;;;5.13;100.00
61786;BME280;47692;53.714;11.372;2023-04-15T04:18:00;100289.22;;;5.08;100.00
61786;BME280;47692;53.714;11.372;2023-04-15T04:20:26;100293.53;;;5.12;100.00
61786;BME280;47692;53.714;11.372;2023-04-15T04:22:51;100297.88;;;5.07;100.00
61786;BME280;47692;53.714;11.372;2023-04-15T04:25:16;100296.16;;;5.06;100.00
61786;BME280;47692;53.714;11.372;2023-04-15T04:27:41;100298.75;;;5.06;100.00
61786;BME280;47692;53.714;11.372;2023-04-15T04:30:07;100303.06;;;5.09;100.00
61786;BME280;47692;53.714;11.372;2023-04-15T04:32:32;100298.75;;;5.06;100.00
61786;BME280;47692;53.714;11.372;2023-04-15T04:34:58;100298.72;;;5.09;100.00
61786;BME280;47692;53.714;11.372;2023-04-15T04:37:23;100297.00;;;5.08;100.00
61786;BME280;47692;53.714;11.372;2023-04-15T04:39:49;100299.59;;;5.08;100.00
61786;BME280;47692;53.714;11.372;2023-04-15T04:42:14;100308.16;;;5.13;100.00
61786;BME280;47692;53.714;11.372;2023-04-15T04:44:40;100308.19;;;5.12;100.00
61786;BME280;47692;53.714;11.372;2023-04-15T04:47:05;100310.81;;;5.07;100.00
61786;BME280;47692;53.714;11.372;2023-04-15T04:49:31;100312.53;;;5.11;100.00
61786;BME280;47692;53.714;11.372;2023-04-15T04:51:57;100312.53;;;5.11;100.00
61786;BME280;47692;53.714;11.372;2023-04-15T04:54:22;100312.44;;;5.22;100.00
61786;BME280;47692;53.714;11.372;2023-04-15T04:56:48;100312.44;;;5.22;100.00
61786;BME280;47692;53.714;11.372;2023-04-15T04:59:13;100310.72;;;5.21;100.00
61786;BME280;47692;53.714;11.372;2023-04-15T05:01:39;100310.69;;;5.24;100.00
61786;BME280;47692;53.714;11.372;2023-04-15T05:04:04;100322.78;;;5.24;100.00
61786;BME280;47692;53.714;11.372;2023-04-15T05:06:31;100324.50;;;5.26;100.00
61786;BME280;47692;53.714;11.372;2023-04-15T05:08:56;100323.59;;;5.29;100.00
61786;BME280;47692;53.714;11.372;2023-04-15T05:11:22;100331.38;;;5.29;100.00
61786;BME280;47692;53.714;11.372;2023-04-15T05:13:47;100330.44;;;5.38;100.00
61786;BME280;47692;53.714;11.372;2023-04-15T05:16:12;100321.81;;;5.36;100.00
61786;BME280;47692;53.714;11.372;2023-04-15T05:18:38;100331.28;;;5.38;100.00
61786;BME280;47692;53.714;11.372;2023-04-15T05:21:03;100333.00;;;5.41;100.00
61786;BME280;47692;53.714;11.372;2023-04-15T05:23:29;100328.69;;;5.43;100.00
61786;BME280;47692;53.714;11.372;2023-04-15T05:25:54;100331.25;;;5.44;100.00
61786;BME280;47692;53.714;11.372;2023-04-15T05:28:20;100338.16;;;5.45;100.00
61786;BME280;47692;53.714;11.372;2023-04-15T05:30:45;100342.44;;;5.48;100.00
61786;BME280;47692;53.714;11.372;2023-04-15T05:33:10;100339.88;;;5.49;100.00
61786;BME280;47692;53.714;11.372;2023-04-15T05:35:36;100350.22;;;5.48;100.00
61786;BME280;47692;53.714;11.372;2023-04-15T05:38:01;100349.34;;;5.49;100.00
61786;BME280;47692;53.714;11.372;2023-04-15T05:40:27;100347.56;;;5.54;100.00
61786;BME280;47692;53.714;11.372;2023-04-15T05:42:52;100346.69;;;5.57;100.00
61786;BME280;47692;53.714;11.372;2023-04-15T05:45:17;100344.09;;;5.57;100.00
61786;BME280;47692;53.714;11.372;2023-04-15T05:47:43;100344.91;;;5.62;100.00
61786;BME280;47692;53.714;11.372;2023-04-15T05:50:08;100348.34;;;5.65;100.00
61786;BME280;47692;53.714;11.372;2023-04-15T05:52:34;100352.66;;;5.66;100.00
61786;BME280;47692;53.714;11.372;2023-04-15T05:54:59;100352.63;;;5.68;100.00
61786;BME280;47692;53.714;11.372;2023-04-15T05:57:24;100344.03;;;5.66;100.00
61786;BME280;47692;53.714;11.372;2023-04-15T05:59:50;100356.94;;;5.69;100.00
61786;BME280;47692;53.714;11.372;2023-04-15T06:02:17;100358.66;;;5.70;100.00
61786;BME280;47692;53.714;11.372;2023-04-15T06:04:42;100362.13;;;5.72;100.00
61786;BME280;47692;53.714;11.372;2023-04-15T06:07:07;100364.69;;;5.77;100.00
61786;BME280;47692;53.714;11.372;2023-04-15T06:09:33;100368.97;;;5.79;100.00
61786;BME280;47692;53.714;11.372;2023-04-15T06:11:58;100374.09;;;5.84;100.00
61786;BME280;47692;53.714;11.372;2023-04-15T06:14:25;100372.38;;;5.85;100.00
61786;BME280;47692;53.714;11.372;2023-04-15T06:16:50;100372.38;;;5.83;100.00
61786;BME280;47692;53.714;11.372;2023-04-15T06:19:16;100382.75;;;5.85;100.00
61786;BME280;47692;53.714;11.372;2023-04-15T06:21:43;100385.25;;;5.89;100.00
61786;BME280;47692;53.714;11.372;2023-04-15T06:24:08;100382.69;;;5.91;100.00
61786;BME280;47692;53.714;11.372;2023-04-15T06:26:33;100382.66;;;5.92;100.00
61786;BME280;47692;53.714;11.372;2023-04-15T06:28:59;100382.63;;;5.97;100.00
61786;BME280;47692;53.714;11.372;2023-04-15T06:31:24;100376.56;;;6.01;100.00
61786;BME280;47692;53.714;11.372;2023-04-15T06:33:50;100377.41;;;6.05;100.00
61786;BME280;47692;53.714;11.372;2023-04-15T06:36:15;100386.06;;;6.02;100.00
61786;BME280;47692;53.714;11.372;2023-04-15T06:38:41;100390.31;;;6.09;100.00
61786;BME280;47692;53.714;11.372;2023-04-15T06:41:06;100381.56;;;6.20;100.00
61786;BME280;47692;53.714;11.372;2023-04-15T06:43:32;100386.78;;;6.18;100.00
61786;BME280;47692;53.714;11.372;2023-04-15T06:45:57;100378.94;;;6.23;100.00
61786;BME280;47692;53.714;11.372;2023-04-15T06:48:23;100382.31;;;6.31;100.00
61786;BME280;47692;53.714;11.372;2023-04-15T06:50:48;100388.38;;;6.32;100.00
61786;BME280;47692;53.714;11.372;2023-04-15T06:53:14;100390.06;;;6.33;100.00
61786;BME280;47692;53.714;11.372;2023-04-15T06:55:40;100392.63;;;6.40;100.00
61786;BME280;47692;53.714;11.372;2023-04-15T06:58:05;100396.00;;;6.45;100.00
61786;BME280;47692;53.714;11.372;2023-04-15T07:00:31;100396.84;;;6.49;100.00
61786;BME280;47692;53.714;11.372;2023-04-15T07:02:58;100393.28;;;6.55;100.00
61786;BME280;47692;53.714;11.372;2023-04-15T07:05:25;100402.69;;;6.65;100.00
61786;BME280;47692;53.714;11.372;2023-04-15T07:07:50;100401.75;;;6.71;100.00
61786;BME280;47692;53.714;11.372;2023-04-15T07:10:15;100402.56;;;6.76;100.00
61786;BME280;47692;53.714;11.372;2023-04-15T07:12:41;100405.97;;;6.83;100.00
61786;BME280;47692;53.714;11.372;2023-04-15T07:15:06;100405.03;;;6.87;100.00
61786;BME280;47692;53.714;11.372;2023-04-15T07:17:32;100411.84;;;6.95;100.00
61786;BME280;47692;53.714;11.372;2023-04-15T07:19:58;100415.25;;;7.01;100.00
61786;BME280;47692;53.714;11.372;2023-04-15T07:22:24;100414.31;;;7.06;100.00
61786;BME280;47692;53.714;11.372;2023-04-15T07:24:49;100412.44;;;7.15;100.00
61786;BME280;47692;53.714;11.372;2023-04-15T07:27:14;100411.41;;;7.28;100.00
61786;BME280;47692;53.714;11.372;2023-04-15T07:29:41;100421.69;;;7.36;100.00
61786;BME280;47692;53.714;11.372;2023-04-15T07:32:06;100418.19;;;7.38;100.00
61786;BME280;47692;53.714;11.372;2023-04-15T07:34:32;100411.94;;;7.52;100.00
61786;BME280;47692;53.714;11.372;2023-04-15T07:36:57;100424.00;;;7.56;100.00
61786;BME280;47692;53.714;11.372;2023-04-15T07:39:22;100418.66;;;7.65;100.00
61786;BME280;47692;53.714;11.372;2023-04-15T07:41:47;100428.03;;;7.77;100.00
61786;BME280;47692;53.714;11.372;2023-04-15T07:44:13;100422.56;;;7.92;100.00
61786;BME280;47692;53.714;11.372;2023-04-15T07:46:38;100421.56;;;8.01;100.00
61786;BME280;47692;53.714;11.372;2023-04-15T07:49:04;100417.06;;;8.11;100.00
61786;BME280;47692;53.714;11.372;2023-04-15T07:51:29;100422.00;;;8.25;100.00
61786;BME280;47692;53.714;11.372;2023-04-15T07:53:56;100414.91;;;8.35;100.00
61786;BME280;47692;53.714;11.372;2023-04-15T07:56:21;100410.38;;;8.45;100.00
61786;BME280;47692;53.714;11.372;2023-04-15T07:58:47;100413.88;;;8.44;100.00
61786;BME280;47692;53.714;11.372;2023-04-15T08:01:12;100405.09;;;8.51;100.00
61786;BME280;47692;53.714;11.372;2023-04-15T08:03:37;100404.84;;;8.63;100.00
61786;BME280;47692;53.714;11.372;2023-04-15T08:06:03;100410.06;;;8.63;100.00
61786;BME280;47692;53.714;11.372;2023-04-15T08:08:28;100410.06;;;8.63;100.00
61786;BME280;47692;53.714;11.372;2023-04-15T08:10:54;100414.19;;;8.73;100.00
61786;BME280;47692;53.714;11.372;2023-04-15T08:13:19;100413.19;;;8.81;100.00
61786;BME280;47692;53.714;11.372;2023-04-15T08:15:45;100419.91;;;8.91;100.00
61786;BME280;47692;53.714;11.372;2023-04-15T08:18:10;100419.81;;;8.96;100.00
61786;BME280;47692;53.714;11.372;2023-04-15T08:20:36;100421.50;;;8.98;100.00
61786;BME280;47692;53.714;11.372;2023-04-15T08:23:02;100424.78;;;9.08;100.00
61786;BME280;47692;53.714;11.372;2023-04-15T08:25:27;100424.56;;;9.19;100.00
61786;BME280;47692;53.714;11.372;2023-04-15T08:27:54;100424.47;;;9.22;100.00
61786;BME280;47692;53.714;11.372;2023-04-15T08:30:20;100430.56;;;9.21;100.00
61786;BME280;47692;53.714;11.372;2023-04-15T08:32:45;100431.25;;;9.29;100.00
61786;BME280;47692;53.714;11.372;2023-04-15T08:35:11;100432.75;;;9.40;100.00
61786;BME280;47692;53.714;11.372;2023-04-15T08:37:37;100428.16;;;9.51;100.00
61786;BME280;47692;53.714;11.372;2023-04-15T08:40:03;100434.06;;;9.59;100.00
61786;BME280;47692;53.714;11.372;2023-04-15T08:42:36;100431.31;;;9.65;100.00
61786;BME280;47692;53.714;11.372;2023-04-15T08:45:03;100433.63;;;9.78;100.00
61786;BME280;47692;53.714;11.372;2023-04-15T08:47:30;100436.97;;;9.83;100.00
61786;BME280;47692;53.714;11.372;2023-04-15T08:49:58;100432.50;;;9.88;100.00
61786;BME280;47692;53.714;11.372;2023-04-15T08:52:27;100441.06;;;9.93;100.00
61786;BME280;47692;53.714;11.372;2023-04-15T08:54:56;100440.03;;;10.00;100.00
61786;BME280;47692;53.714;11.372;2023-04-15T08:57:25;100443.16;;;10.15;100.00
61786;BME280;47692;53.714;11.372;2023-04-15T08:59:52;100437.53;;;10.30;100.00
61786;BME280;47692;53.714;11.372;2023-04-15T09:02:18;100445.97;;;10.42;100.00
61786;BME280;47692;53.714;11.372;2023-04-15T09:04:43;100447.44;;;10.52;100.00
61786;BME280;47692;53.714;11.372;2023-04-15T09:07:09;100444.19;;;10.44;100.00
61786;BME280;47692;53.714;11.372;2023-04-15T09:09:34;100449.13;;;10.55;100.00
61786;BME280;47692;53.714;11.372;2023-04-15T09:12:01;100438.50;;;10.61;100.00
61786;BME280;47692;53.714;11.372;2023-04-15T09:14:28;100445.88;;;10.78;100.00
61786;BME280;47692;53.714;11.372;2023-04-15T09:17:01;100454.06;;;10.97;100.00
61786;BME280;47692;53.714;11.372;2023-04-15T09:19:26;100449.59;;;11.01;100.00
61786;BME280;47692;53.714;11.372;2023-04-15T09:21:57;100450.97;;;11.14;100.00
61786;BME280;47692;53.714;11.372;2023-04-15T09:24:23;100446.28;;;11.24;100.00
61786;BME280;47692;53.714;11.372;2023-04-15T09:26:53;100445.06;;;11.36;100.00
61786;BME280;47692;53.714;11.372;2023-04-15T09:29:23;100453.38;;;11.50;100.00
61786;BME280;47692;53.714;11.372;2023-04-15T09:31:50;100457.81;;;11.75;100.00
61786;BME280;47692;53.714;11.372;2023-04-15T09:34:15;100456.81;;;11.79;100.00
61786;BME280;47692;53.714;11.372;2023-04-15T09:39:12;100456.69;;;11.55;100.00
61786;BME280;47692;53.714;11.372;2023-04-15T09:41:38;100461.63;;;11.64;100.00
61786;BME280;47692;53.714;11.372;2023-04-15T09:44:03;100462.38;;;11.68;100.00
61786;BME280;47692;53.714;11.372;2023-04-15T09:46:42;100460.47;;;11.73;99.69
61786;BME280;47692;53.714;11.372;2023-04-15T09:49:09;100470.47;;;11.89;100.00
61786;BME280;47692;53.714;11.372;2023-04-15T09:51:35;100472.84;;;11.96;100.00
61786;BME280;47692;53.714;11.372;2023-04-15T09:54:00;100469.22;;;12.01;100.00
61786;BME280;47692;53.714;11.372;2023-04-15T09:56:34;100479.84;;;11.94;98.65
61786;BME280;47692;53.714;11.372;2023-04-15T09:59:01;100479.22;;;11.88;97.37
61786;BME280;47692;53.714;11.372;2023-04-15T10:01:27;100480.03;;;11.88;99.27
61786;BME280;47692;53.714;11.372;2023-04-15T10:03:54;100487.09;;;11.86;98.55
61786;BME280;47692;53.714;11.372;2023-04-15T10:06:22;100481.19;;;11.79;96.30
61786;BME280;47692;53.714;11.372;2023-04-15T10:08:48;100488.25;;;11.77;97.08
61786;BME280;47692;53.714;11.372;2023-04-15T10:11:17;100476.91;;;11.77;97.67
61786;BME280;47692;53.714;11.372;2023-04-15T10:13:43;100474.94;;;11.85;98.86
61786;BME280;47692;53.714;11.372;2023-04-15T10:16:15;100485.03;;;11.98;99.37
61786;BME280;47692;53.714;11.372;2023-04-15T10:18:44;100483.00;;;12.06;98.47
61786;BME280;47692;53.714;11.372;2023-04-15T10:21:10;100478.50;;;12.11;96.13
61786;BME280;47692;53.714;11.372;2023-04-15T10:23:38;100480.91;;;12.17;94.47
61786;BME280;47692;53.714;11.372;2023-04-15T10:26:04;100481.13;;;12.11;93.11
61786;BME280;47692;53.714;11.372;2023-04-15T10:28:30;100484.53;;;12.13;92.28
61786;BME280;47692;53.714;11.372;2023-04-15T10:30:56;100485.94;;;12.23;92.33
61786;BME280;47692;53.714;11.372;2023-04-15T10:33:23;100476.19;;;12.27;88.36
61786;BME280;47692;53.714;11.372;2023-04-15T10:35:51;100478.66;;;12.32;89.34
61786;BME280;47692;53.714;11.372;2023-04-15T10:38:41;100480.19;;;12.39;88.83
61786;BME280;47692;53.714;11.372;2023-04-15T10:41:15;100485.28;;;12.43;89.79
61786;BME280;47692;53.714;11.372;2023-04-15T10:44:05;100491.00;;;12.28;88.55
61786;BME280;47692;53.714;11.372;2023-04-15T10:46:42;100489.66;;;12.16;89.97
61786;BME280;47692;53.714;11.372;2023-04-15T10:49:09;100488.22;;;12.06;87.12
61786;BME280;47692;53.714;11.372;2023-04-15T10:51:44;100502.25;;;12.05;87.95
61786;BME280;47692;53.714;11.372;2023-04-15T10:56:52;100494.69;;;12.22;91.22
61786;BME280;47692;53.714;11.372;2023-04-15T11:02:00;100504.59;;;12.39;88.40
61786;BME280;47692;53.714;11.372;2023-04-15T11:04:54;100503.69;;;12.40;85.81
61786;BME280;47692;53.714;11.372;2023-04-15T11:12:55;100512.63;;;12.35;86.70
61786;BME280;47692;53.714;11.372;2023-04-15T11:15:28;100514.09;;;12.42;86.54
61786;BME280;47692;53.714;11.372;2023-04-15T11:20:38;100512.56;;;12.61;85.64
61786;BME280;47692;53.714;11.372;2023-04-15T11:23:04;100519.53;;;12.63;84.29
61786;BME280;47692;53.714;11.372;2023-04-15T11:25:31;100518.78;;;12.59;84.41
61786;BME280;47692;53.714;11.372;2023-04-15T11:27:58;100519.66;;;12.59;84.62
61786;BME280;47692;53.714;11.372;2023-04-15T11:30:25;100520.34;;;12.65;85.38
61786;BME280;47692;53.714;11.372;2023-04-15T11:32:52;100528.06;;;12.68;84.21
61786;BME280;47692;53.714;11.372;2023-04-15T11:35:18;100530.69;;;12.68;84.90
61786;BME280;47692;53.714;11.372;2023-04-15T11:37:44;100526.06;;;12.76;83.66
61786;BME280;47692;53.714;11.372;2023-04-15T11:40:10;100530.28;;;12.55;84.89
61786;BME280;47692;53.714;11.372;2023-04-15T11:42:36;100531.44;;;12.46;86.12
61786;BME280;47692;53.714;11.372;2023-04-15T11:45:12;100540.13;;;12.47;86.62
61786;BME280;47692;53.714;11.372;2023-04-15T11:47:39;100536.81;;;12.41;84.20
61786;BME280;47692;53.714;11.372;2023-04-15T11:50:19;100546.25;;;12.47;86.56
61786;BME280;47692;53.714;11.372;2023-04-15T11:52:55;100544.00;;;12.61;86.37
61786;BME280;47692;53.714;11.372;2023-04-15T11:55:22;100544.47;;;12.73;85.93
61786;BME280;47692;53.714;11.372;2023-04-15T11:57:51;100551.16;;;12.82;84.98
61786;BME280;47692;53.714;11.372;2023-04-15T12:00:29;100552.44;;;12.95;84.81
61786;BME280;47692;53.714;11.372;2023-04-15T12:03:35;100546.16;;;13.24;83.09
61786;BME280;47692;53.714;11.372;2023-04-15T12:11:32;100547.50;;;12.87;82.22
61786;BME280;47692;53.714;11.372;2023-04-15T12:16:28;100557.50;;;12.76;83.65
61786;BME280;47692;53.714;11.372;2023-04-15T12:18:57;100557.50;;;12.76;82.39
61786;BME280;47692;53.714;11.372;2023-04-15T12:21:25;100564.94;;;12.61;88.52
61786;BME280;47692;53.714;11.372;2023-04-15T12:23:55;100563.06;;;12.40;90.84
61786;BME280;47692;53.714;11.372;2023-04-15T12:26:28;100570.69;;;12.19;92.19
61786;BME280;47692;53.714;11.372;2023-04-15T12:29:01;100572.97;;;12.02;93.73
61786;BME280;47692;53.714;11.372;2023-04-15T12:31:27;100572.84;;;12.06;94.03
61786;BME280;47692;53.714;11.372;2023-04-15T12:33:59;100571.78;;;12.12;94.64
61786;BME280;47692;53.714;11.372;2023-04-15T12:36:26;100581.25;;;12.16;93.86
61786;BME280;47692;53.714;11.372;2023-04-15T12:38:51;100579.97;;;12.30;93.45
61786;BME280;47692;53.714;11.372;2023-04-15T12:41:17;100581.06;;;12.22;91.11
61786;BME280;47692;53.714;11.372;2023-04-15T12:43:45;100577.84;;;12.14;92.58
61786;BME280;47692;53.714;11.372;2023-04-15T12:46:11;100585.06;;;12.06;92.55
61786;BME280;47692;53.714;11.372;2023-04-15T12:48:37;100586.16;;;11.99;95.01
61786;BME280;47692;53.714;11.372;2023-04-15T12:51:02;100588.88;;;11.94;96.97
61786;BME280;47692;53.714;11.372;2023-04-15T12:53:27;100596.88;;;11.89;97.67
61786;BME280;47692;53.714;11.372;2023-04-15T12:55:53;100594.19;;;11.91;98.41
61786;BME280;47692;53.714;11.372;2023-04-15T12:58:18;100601.16;;;11.92;99.09
61786;BME280;47692;53.714;11.372;2023-04-15T13:00:44;100608.00;;;11.98;99.31